Terminal Aerodrome Forecast
Issued by NWS Boise, ID

Home | Current Version | Previous Version | Text Only | Print | Product List | Glossary On
Versions: 1 2 3 4 5 6 7 8 9 10 11 12 13 14 15 16
000
FTUS45 KBOI 042331
TAFBOI
TAF
KBOI 042331Z 0500/0524 VRB06KT P6SM -SHRA BKN045 OVC060
      TEMPO 0500/0501 32014G24KT 3SM -SHRA BKN030
     FM050100 31012KT P6SM VCSH SCT035 OVC050
     FM050600 VRB05KT P6SM SCT050 BKN100=

USA.gov is the U.S. government's official web portal to all federal, state and local government web resources and services.